AFV1 HKJK-HKJK
Flight info
| Callsign | AFV1 |
|---|---|
| Flight time | 0h 6m |
| Altitude | 12000 |
| Route | TV DCT GV |
| Aircraft | B788/H-SDE1E2E3FGHIJ2J3J4J5M1RWXY/LB1D1 |
Departure
| Time | 2026-04-29 15:51 |
|---|---|
| Airport | Jomo Kenyatta International Airport (HKJK) |
Arrival
| Time | 2026-04-29 15:57 |
|---|---|
| Airport | Jomo Kenyatta International Airport (HKJK) |
| Time | Latitude | Longitude | Altitude | Speed | Heading |
|---|---|---|---|---|---|
| 2026-04-29 15:50 | -1.43486 | 37.01457 | 7202 ft | 291 kts | 233° |
| 2026-04-29 15:51 | -1.44700 | 36.99878 | 7806 ft | 284 kts | 231° |
| 2026-04-29 15:51 | -1.45984 | 36.98337 | 7765 ft | 295 kts | 228° |
| 2026-04-29 15:51 | -1.47273 | 36.96844 | 8850 ft | 283 kts | 228° |
| 2026-04-29 15:51 | -1.48702 | 36.95325 | 8661 ft | 310 kts | 227° |
| 2026-04-29 15:52 | -1.50038 | 36.93739 | 8871 ft | 292 kts | 230° |
| 2026-04-29 15:52 | -1.51298 | 36.92204 | 8812 ft | 284 kts | 230° |
| 2026-04-29 15:52 | -1.52532 | 36.90568 | 8109 ft | 304 kts | 240° |
| 2026-04-29 15:52 | -1.53088 | 36.88606 | 8564 ft | 275 kts | 265° |
| 2026-04-29 15:53 | -1.52835 | 36.86824 | 8684 ft | 260 kts | 291° |
| 2026-04-29 15:53 | -1.51772 | 36.85327 | 7963 ft | 279 kts | 316° |
| 2026-04-29 15:53 | -1.50142 | 36.84043 | 7265 ft | 318 kts | 322° |
| 2026-04-29 15:53 | -1.48319 | 36.82681 | 7755 ft | 330 kts | 323° |
| 2026-04-29 15:54 | -1.46563 | 36.81414 | 8641 ft | 283 kts | 325° |
| 2026-04-29 15:54 | -1.45051 | 36.80393 | 9473 ft | 251 kts | 332° |
| 2026-04-29 15:54 | -1.43347 | 36.79966 | 8851 ft | 265 kts | 358° |
| 2026-04-29 15:54 | -1.41419 | 36.80021 | 7845 ft | 288 kts | 3° |
| 2026-04-29 15:55 | -1.39521 | 36.80395 | 7821 ft | 253 kts | 27° |
| 2026-04-29 15:55 | -1.38336 | 36.81456 | 8015 ft | 221 kts | 53° |
| 2026-04-29 15:55 | -1.37541 | 36.82833 | 6926 ft | 244 kts | 63° |
| 2026-04-29 15:55 | -1.36739 | 36.84439 | 6189 ft | 262 kts | 64° |
| 2026-04-29 15:56 | -1.35917 | 36.86053 | 5970 ft | 269 kts | 64° |
| 2026-04-29 15:56 | -1.35038 | 36.87749 | 5944 ft | 270 kts | 63° |
| 2026-04-29 15:56 | -1.34212 | 36.89267 | 5800 ft | 237 kts | 63° |
| 2026-04-29 15:56 | -1.33443 | 36.90631 | 5533 ft | 215 kts | 59° |
| 2026-04-29 15:57 | -1.32640 | 36.91788 | 5341 ft | 170 kts | 56° |
| 2026-04-29 15:57 | -1.32095 | 36.92539 | 5341 ft | 97 kts | 55° |
| 2026-04-29 15:57 | -1.31835 | 36.92912 | 5341 ft | 50 kts | 54° |
| 2026-04-29 15:57 | -1.31671 | 36.93130 | 5341 ft | 27 kts | 53° |
| 2026-04-29 15:58 | -1.31590 | 36.93256 | 5341 ft | 17 kts | 72° |
| 2026-04-29 15:58 | -1.31587 | 36.93317 | 5341 ft | 2 kts | 106° |
| 2026-04-29 15:58 | -1.31587 | 36.93319 | 5341 ft | 0 kts | 108° |
| 2026-04-29 15:58 | -1.31597 | 36.93341 | 5341 ft | 8 kts | 116° |
| 2026-04-29 15:59 | -1.31627 | 36.93373 | 5341 ft | 5 kts | 140° |
| 2026-04-29 15:59 | -1.31655 | 36.93395 | 5341 ft | 6 kts | 143° |
| 2026-04-29 15:59 | -1.31688 | 36.93419 | 5341 ft | 6 kts | 143° |
| 2026-04-29 15:59 | -1.31725 | 36.93446 | 5341 ft | 8 kts | 144° |
| 2026-04-29 16:00 | -1.31770 | 36.93478 | 5341 ft | 7 kts | 144° |
| 2026-04-29 16:00 | -1.31807 | 36.93482 | 5341 ft | 5 kts | 199° |
| 2026-04-29 16:00 | -1.31836 | 36.93458 | 5341 ft | 5 kts | 227° |
| 2026-04-29 16:00 | -1.31860 | 36.93433 | 5341 ft | 5 kts | 227° |
| 2026-04-29 16:01 | -1.31890 | 36.93400 | 5341 ft | 7 kts | 227° |
| 2026-04-29 16:01 | -1.31928 | 36.93358 | 5341 ft | 8 kts | 237° |
| 2026-04-29 16:01 | -1.31957 | 36.93303 | 5341 ft | 10 kts | 238° |
| 2026-04-29 16:01 | -1.31995 | 36.93248 | 5341 ft | 8 kts | 234° |
| 2026-04-29 16:02 | -1.32024 | 36.93208 | 5341 ft | 6 kts | 233° |
| 2026-04-29 16:02 | -1.32047 | 36.93177 | 5341 ft | 6 kts | 233° |
| 2026-04-29 16:02 | -1.32073 | 36.93142 | 5341 ft | 5 kts | 233° |
| 2026-04-29 16:02 | -1.32089 | 36.93120 | 5341 ft | 3 kts | 233° |
| 2026-04-29 16:03 | -1.32100 | 36.93105 | 5341 ft | 2 kts | 233° |
| 2026-04-29 16:03 | -1.32122 | 36.93076 | 5341 ft | 8 kts | 233° |
| 2026-04-29 16:03 | -1.32155 | 36.93030 | 5341 ft | 8 kts | 234° |
| 2026-04-29 16:03 | -1.32185 | 36.92989 | 5341 ft | 6 kts | 234° |
| 2026-04-29 16:04 | -1.32214 | 36.92950 | 5341 ft | 7 kts | 234° |
| 2026-04-29 16:04 | -1.32247 | 36.92903 | 5341 ft | 9 kts | 234° |
| 2026-04-29 16:04 | -1.32289 | 36.92845 | 5341 ft | 10 kts | 234° |
| 2026-04-29 16:04 | -1.32328 | 36.92792 | 5341 ft | 9 kts | 234° |
| 2026-04-29 16:05 | -1.32364 | 36.92742 | 5341 ft | 9 kts | 234° |
| 2026-04-29 16:05 | -1.32399 | 36.92694 | 5341 ft | 8 kts | 234° |
| 2026-04-29 16:05 | -1.32429 | 36.92653 | 5341 ft | 8 kts | 234° |
| 2026-04-29 16:05 | -1.32470 | 36.92597 | 5341 ft | 12 kts | 234° |
| 2026-04-29 16:06 | -1.32518 | 36.92530 | 5341 ft | 11 kts | 235° |
| 2026-04-29 16:06 | -1.32558 | 36.92470 | 5341 ft | 11 kts | 235° |
| 2026-04-29 16:06 | -1.32600 | 36.92410 | 5341 ft | 10 kts | 234° |
| 2026-04-29 16:06 | -1.32635 | 36.92360 | 5341 ft | 7 kts | 235° |
| 2026-04-29 16:07 | -1.32665 | 36.92344 | 5341 ft | 3 kts | 173° |
| 2026-04-29 16:07 | -1.32674 | 36.92347 | 5341 ft | 2 kts | 156° |
| 2026-04-29 16:07 | -1.32692 | 36.92357 | 5341 ft | 3 kts | 148° |
| 2026-04-29 16:07 | -1.32709 | 36.92368 | 5341 ft | 3 kts | 144° |
| 2026-04-29 16:08 | -1.32728 | 36.92382 | 5341 ft | 5 kts | 144° |
| 2026-04-29 16:08 | -1.32757 | 36.92405 | 5341 ft | 6 kts | 131° |
| 2026-04-29 16:08 | -1.32767 | 36.92452 | 5341 ft | 8 kts | 88° |
| 2026-04-29 16:08 | -1.32765 | 36.92505 | 5341 ft | 7 kts | 88° |
| 2026-04-29 16:09 | -1.32767 | 36.92543 | 5341 ft | 4 kts | 99° |
| 2026-04-29 16:09 | -1.32774 | 36.92561 | 5341 ft | 1 kts | 138° |
| 2026-04-29 16:09 | -1.32796 | 36.92563 | 5341 ft | 4 kts | 188° |
| 2026-04-29 16:09 | -1.32818 | 36.92558 | 5341 ft | 2 kts | 193° |
| 2026-04-29 16:10 | -1.32834 | 36.92554 | 5341 ft | 3 kts | 193° |
| 2026-04-29 16:10 | -1.32851 | 36.92551 | 5341 ft | 1 kts | 193° |
| 2026-04-29 16:10 | -1.32851 | 36.92550 | 5341 ft | 0 kts | 193° |